Terminal Aerodrome Forecast
Issued by NWS

Home | Current Version | Previous Version | Text Only | Print | Product List | Glossary On
Versions: 1 2 3 4 5 6 7 8 9 10 11 12 13 14 15 16 17 18 19 20 21 22 23 24 25 26 27 28
000
FTUS43 KLSX 200900 AAA
TAFUIN
TAF AMD
KUIN 200935Z 2010/2106 14004KT 6SM BR SCT025 OVC050
     FM201200 12004KT 5SM BR BKN015 OVC040
     FM201400 13004KT 5SM BR OVC008
     FM201800 15006KT 6SM BR OVC012=

USA.gov is the U.S. government's official web portal to all federal, state and local government web resources and services.